createdAt,value
2023-04-18T00:01:19.019Z,102851.59
2023-04-18T00:03:47.170Z,102851.63
2023-04-18T00:06:15.416Z,102849.09
2023-04-18T00:08:43.545Z,102853.63
2023-04-18T00:11:12.996Z,102847.44
2023-04-18T00:13:41.545Z,102844.00
2023-04-18T00:16:09.996Z,102845.88
2023-04-18T00:18:39.910Z,102842.38
2023-04-18T00:21:08.697Z,102848.72
2023-04-18T00:23:37.263Z,102839.84
2023-04-18T00:26:05.445Z,102844.41
2023-04-18T00:28:34.890Z,102843.59
2023-04-18T00:31:03.050Z,102843.69
2023-04-18T00:33:31.164Z,102838.38
2023-04-18T00:35:59.236Z,102847.34
2023-04-18T00:38:27.303Z,102844.72
2023-04-18T00:40:55.406Z,102848.38
2023-04-18T00:43:24.342Z,102849.28
2023-04-18T00:45:54.083Z,102850.19
2023-04-18T00:48:22.204Z,102852.91
2023-04-18T00:50:50.328Z,102843.13
2023-04-18T00:53:18.514Z,102844.94
2023-04-18T00:55:46.779Z,102847.66
2023-04-18T00:58:15.157Z,102853.00
2023-04-18T01:00:43.671Z,102853.91
2023-04-18T01:03:14.500Z,102849.50
2023-04-18T01:05:42.829Z,102851.28
2023-04-18T01:08:11.092Z,102841.50
2023-04-18T01:10:39.282Z,102844.22
2023-04-18T01:13:14.592Z,102842.47
2023-04-18T01:15:43.686Z,102840.75
2023-04-18T01:18:17.046Z,102840.75
2023-04-18T01:20:47.266Z,102839.88
2023-04-18T01:23:16.021Z,102837.22
2023-04-18T01:25:46.111Z,102839.94
2023-04-18T01:28:15.013Z,102837.28
2023-04-18T01:30:43.115Z,102847.16
2023-04-18T01:33:11.412Z,102847.19
2023-04-18T01:35:39.462Z,102837.41
2023-04-18T01:38:07.533Z,102850.81
2023-04-18T01:40:35.686Z,102840.13
2023-04-18T01:43:05.136Z,102845.50
2023-04-18T01:45:33.224Z,102836.63
2023-04-18T01:48:01.353Z,102839.34
2023-04-18T01:50:29.583Z,102840.25
2023-04-18T01:52:57.632Z,102836.72
2023-04-18T01:55:25.676Z,102842.09
2023-04-18T01:57:53.777Z,102837.66
2023-04-18T02:00:23.754Z,102839.47
2023-04-18T02:02:51.963Z,102838.56
2023-04-18T02:05:20.249Z,102837.72
2023-04-18T02:07:50.179Z,102838.63
2023-04-18T02:10:19.372Z,102835.97
2023-04-18T02:12:47.577Z,102841.34
2023-04-18T02:15:15.687Z,102832.44
2023-04-18T02:17:45.627Z,102828.91
2023-04-18T02:20:14.760Z,102835.19
2023-04-18T02:22:42.901Z,102834.28
2023-04-18T02:25:11.790Z,102839.66
2023-04-18T02:27:39.817Z,102835.22
2023-04-18T02:30:09.054Z,102835.25
2023-04-18T02:32:37.196Z,102838.84
2023-04-18T02:35:07.404Z,102834.41
2023-04-18T02:37:35.463Z,102824.63
2023-04-18T02:40:05.633Z,102832.63
2023-04-18T02:42:33.855Z,102835.31
2023-04-18T02:45:01.999Z,102841.59
2023-04-18T02:47:31.731Z,102842.47
2023-04-18T02:50:03.485Z,102829.97
2023-04-18T02:52:32.973Z,102838.00
2023-04-18T02:55:01.210Z,102843.38
2023-04-18T02:57:29.262Z,102840.78
2023-04-18T02:59:57.379Z,102846.19
2023-04-18T03:02:25.626Z,102847.09
2023-04-18T03:04:54.132Z,102848.03
2023-04-18T03:07:22.235Z,102852.50
2023-04-18T03:09:51.705Z,102860.56
2023-04-18T03:12:19.785Z,102859.66
2023-04-18T03:14:47.850Z,102863.25
2023-04-18T03:17:16.050Z,102864.16
2023-04-18T03:19:44.985Z,102859.69
2023-04-18T03:22:14.043Z,102864.22
2023-04-18T03:24:42.105Z,102856.25
2023-04-18T03:27:11.591Z,102862.47
2023-04-18T03:29:39.713Z,102866.06
2023-04-18T03:32:07.818Z,102857.22
2023-04-18T03:34:36.110Z,102861.72
2023-04-18T03:37:04.179Z,102863.47
2023-04-18T03:39:32.328Z,102861.72
2023-04-18T03:42:01.478Z,102870.63
2023-04-18T03:44:31.266Z,102869.78
2023-04-18T03:46:59.405Z,102872.47
2023-04-18T03:49:27.486Z,102875.16
2023-04-18T03:51:55.629Z,102876.06
2023-04-18T03:54:23.704Z,102875.22
2023-04-18T03:56:51.824Z,102880.53
2023-04-18T03:59:19.982Z,102873.44
2023-04-18T04:01:49.531Z,102871.69
2023-04-18T04:04:17.788Z,102879.69
2023-04-18T04:06:46.328Z,102877.91
2023-04-18T04:09:14.402Z,102883.25
2023-04-18T04:11:42.502Z,102879.66
2023-04-18T04:14:10.662Z,102885.00
2023-04-18T04:16:38.907Z,102894.81
2023-04-18T04:19:08.432Z,102882.31
2023-04-18T04:21:36.599Z,102886.78
2023-04-18T04:24:04.763Z,102899.25
2023-04-18T04:26:32.862Z,102896.56
2023-04-18T04:29:00.906Z,102905.44
2023-04-18T04:31:29.473Z,102906.31
2023-04-18T04:33:57.581Z,102900.06
2023-04-18T04:36:27.919Z,102903.63
2023-04-18T04:38:55.982Z,102907.19
2023-04-18T04:41:24.626Z,102914.28
2023-04-18T04:43:53.874Z,102916.03
2023-04-18T04:46:23.296Z,102911.56
2023-04-18T04:48:53.167Z,102916.88
2023-04-18T04:51:21.263Z,102920.41
2023-04-18T04:53:50.719Z,102915.88
2023-04-18T04:56:18.860Z,102913.19
2023-04-18T04:58:47.217Z,102914.91
2023-04-18T05:01:16.803Z,102924.69
2023-04-18T05:03:45.285Z,102916.56
2023-04-18T05:06:14.075Z,102908.50
2023-04-18T05:08:42.159Z,102921.78
2023-04-18T05:11:11.603Z,102919.94
2023-04-18T05:13:39.683Z,102919.84
2023-04-18T05:16:07.916Z,102917.09
2023-04-18T05:18:38.973Z,102916.09
2023-04-18T05:21:07.169Z,102930.28
2023-04-18T05:23:36.971Z,102921.28
2023-04-18T05:26:05.216Z,102924.72
2023-04-18T05:28:34.660Z,102923.72
2023-04-18T05:31:02.844Z,102925.44
2023-04-18T05:33:31.627Z,102917.22
2023-04-18T05:36:00.060Z,102919.78
2023-04-18T05:38:28.218Z,102921.47
2023-04-18T05:40:57.140Z,102921.31
2023-04-18T05:43:25.216Z,102914.81
2023-04-18T05:45:56.553Z,102921.59
2023-04-18T05:48:26.132Z,102913.09
2023-04-18T05:50:54.263Z,102915.38
2023-04-18T05:53:22.321Z,102920.72
2023-04-18T05:55:50.556Z,102928.91
2023-04-18T05:58:18.637Z,102927.19
2023-04-18T06:00:48.257Z,102926.31
2023-04-18T06:03:17.947Z,102934.38
2023-04-18T06:08:14.318Z,102928.03
2023-04-18T06:10:42.398Z,102918.13
2023-04-18T06:13:10.504Z,102926.03
2023-04-18T06:15:38.656Z,102921.47
2023-04-18T06:18:06.842Z,102918.59
2023-04-18T06:20:36.413Z,102920.28
2023-04-18T06:23:04.475Z,102923.75
2023-04-18T06:25:32.565Z,102923.59
2023-04-18T06:28:00.669Z,102931.50
2023-04-18T06:30:28.801Z,102932.28
2023-04-18T06:32:56.885Z,102926.91
2023-04-18T06:35:26.621Z,102930.50
2023-04-18T06:37:57.146Z,102933.22
2023-04-18T06:40:25.303Z,102929.56
2023-04-18T06:42:53.583Z,102929.38
2023-04-18T06:45:21.810Z,102944.56
2023-04-18T06:47:51.374Z,102937.38
2023-04-18T06:50:19.622Z,102937.31
2023-04-18T06:52:47.705Z,102943.50
2023-04-18T06:55:17.247Z,102942.50
2023-04-18T06:57:45.550Z,102944.31
2023-04-18T07:00:14.539Z,102950.66
2023-04-18T07:02:42.701Z,102948.91
2023-04-18T07:05:11.514Z,102956.13
2023-04-18T07:07:40.146Z,102958.84
2023-04-18T07:10:09.948Z,102954.31
2023-04-18T07:12:39.461Z,102956.94
2023-04-18T07:15:08.581Z,102956.84
2023-04-18T07:17:37.079Z,102956.84
2023-04-18T07:20:06.000Z,102962.22
2023-04-18T07:22:34.267Z,102953.25
2023-04-18T07:25:02.416Z,102957.63
2023-04-18T07:27:30.816Z,102959.41
2023-04-18T07:30:00.264Z,102966.47
2023-04-18T07:32:28.366Z,102967.31
2023-04-18T07:34:57.573Z,102968.97
2023-04-18T07:37:26.192Z,102971.56
2023-04-18T07:39:54.371Z,102958.94
2023-04-18T07:42:22.458Z,102965.38
2023-04-18T07:44:50.604Z,102976.13
2023-04-18T07:47:22.437Z,102960.72
2023-04-18T07:49:50.815Z,102971.34
2023-04-18T07:52:19.115Z,102973.00
2023-04-18T07:54:47.661Z,102972.84
2023-04-18T07:57:15.816Z,102973.59
2023-04-18T07:59:43.874Z,102968.06
2023-04-18T08:02:11.954Z,102970.72
2023-04-18T08:04:41.544Z,102968.94
2023-04-18T08:07:09.826Z,102971.59
2023-04-18T08:09:37.915Z,102983.25
2023-04-18T08:12:06.528Z,102975.19
2023-04-18T08:14:34.610Z,102968.06
2023-04-18T08:17:02.701Z,102986.00
2023-04-18T08:19:30.834Z,102984.09
2023-04-18T08:22:10.269Z,102986.53
2023-04-18T08:24:38.969Z,102992.81
2023-04-18T08:27:07.425Z,102991.88
2023-04-18T08:29:35.517Z,102981.94
2023-04-18T08:32:03.801Z,102997.28
2023-04-18T08:34:34.241Z,102992.81
2023-04-18T08:37:02.629Z,102996.34
2023-04-18T08:39:32.221Z,102997.25
2023-04-18T08:42:01.667Z,102995.47
2023-04-18T08:44:30.632Z,103003.31
2023-04-18T08:47:00.230Z,102997.84
2023-04-18T08:49:28.795Z,102997.81
2023-04-18T08:51:57.544Z,103004.03
2023-04-18T08:54:27.403Z,103004.81
2023-04-18T08:57:16.652Z,103004.56
2023-04-18T08:59:48.270Z,103001.72
2023-04-18T09:02:19.227Z,102991.06
2023-04-18T09:04:52.420Z,103002.84
2023-04-18T09:07:23.693Z,103004.56
2023-04-18T09:09:53.605Z,103002.63
2023-04-18T09:12:24.147Z,103015.88
2023-04-18T09:14:56.481Z,103008.50
2023-04-18T09:17:35.573Z,103005.72
2023-04-18T09:20:06.072Z,103003.66
2023-04-18T09:22:48.622Z,103007.94
2023-04-18T09:25:27.465Z,103000.78
2023-04-18T09:27:57.472Z,103012.69
2023-04-18T09:30:36.950Z,103014.69
2023-04-18T09:33:07.651Z,103019.28
2023-04-18T09:35:36.228Z,103010.28
2023-04-18T09:38:04.680Z,103004.75
2023-04-18T09:40:33.431Z,103010.03
2023-04-18T09:43:18.043Z,103004.53
2023-04-18T09:45:48.811Z,103005.25
2023-04-18T09:48:16.913Z,102994.13
2023-04-18T09:50:46.099Z,103004.75
2023-04-18T09:53:15.238Z,103008.09
2023-04-18T09:55:43.586Z,102998.78
2023-04-18T09:58:13.522Z,103010.09
2023-04-18T10:00:41.793Z,103006.88
2023-04-18T10:03:11.422Z,103001.28
2023-04-18T10:05:41.327Z,102998.53
2023-04-18T10:08:10.441Z,103009.78
2023-04-18T10:10:39.191Z,103000.97
2023-04-18T10:13:11.041Z,102997.88
2023-04-18T10:15:42.392Z,102994.13
2023-04-18T10:18:15.838Z,102996.47
2023-04-18T10:20:44.494Z,102995.16
2023-04-18T10:23:38.526Z,103001.63
2023-04-18T10:26:07.554Z,102998.06
2023-04-18T10:28:53.115Z,102998.91
2023-04-18T10:31:23.800Z,103004.22
2023-04-18T10:34:04.130Z,102989.41
2023-04-18T10:36:34.052Z,103004.22
2023-04-18T10:39:04.296Z,103000.53
2023-04-18T10:41:33.293Z,102992.25
2023-04-18T10:44:22.307Z,102989.81
2023-04-18T10:47:26.822Z,102998.16
2023-04-18T10:49:58.520Z,102996.38
2023-04-18T10:52:27.701Z,103004.84
2023-04-18T10:55:05.749Z,102988.84
2023-04-18T10:57:44.101Z,102994.88
2023-04-18T11:00:14.772Z,102992.59
2023-04-18T11:02:50.453Z,102989.13
2023-04-18T11:05:24.826Z,102979.47
2023-04-18T11:07:53.060Z,102980.28
2023-04-18T11:10:22.703Z,102993.25
2023-04-18T11:12:51.235Z,102979.50
2023-04-18T11:15:22.375Z,102989.28
2023-04-18T11:17:58.579Z,102983.03
2023-04-18T11:20:28.834Z,102972.94
2023-04-18T11:22:58.132Z,102965.41
2023-04-18T11:25:27.962Z,102972.69
2023-04-18T11:27:56.654Z,102964.78
2023-04-18T11:30:24.828Z,102970.09
2023-04-18T11:32:55.959Z,102975.88
2023-04-18T11:35:24.247Z,102976.84
2023-04-18T11:37:55.740Z,102972.00
2023-04-18T11:40:24.017Z,102975.81
2023-04-18T11:42:52.137Z,102968.41
2023-04-18T11:45:20.260Z,102965.06
2023-04-18T11:47:48.527Z,102969.31
2023-04-18T11:50:16.714Z,102963.25
2023-04-18T11:52:50.624Z,102965.88
2023-04-18T11:55:22.109Z,102966.44
2023-04-18T11:57:54.402Z,102954.53
2023-04-18T12:00:34.435Z,102966.19
2023-04-18T12:03:04.570Z,102967.22
2023-04-18T12:05:34.801Z,102963.38
2023-04-18T12:08:10.210Z,102969.66
2023-04-18T12:10:46.518Z,102971.94
2023-04-18T12:13:14.738Z,102964.41
2023-04-18T12:15:45.677Z,102963.38
2023-04-18T12:18:15.292Z,102969.22
2023-04-18T12:20:50.117Z,102961.47
2023-04-18T12:23:31.962Z,102964.31
2023-04-18T12:26:02.609Z,102966.00
2023-04-18T12:28:31.342Z,102956.00
2023-04-18T12:30:59.941Z,102959.63
2023-04-18T12:33:28.128Z,102960.69
2023-04-18T12:35:56.223Z,102965.47
2023-04-18T12:38:25.007Z,102956.16
2023-04-18T12:40:53.472Z,102967.72
2023-04-18T12:43:22.913Z,102957.69
2023-04-18T12:45:51.147Z,102960.81
2023-04-18T12:48:19.228Z,102954.31
2023-04-18T12:50:47.344Z,102961.28
2023-04-18T12:53:15.422Z,102956.41
2023-04-18T12:55:43.581Z,102956.88
2023-04-18T12:58:11.680Z,102960.69
2023-04-18T13:00:41.392Z,102956.09
2023-04-18T13:03:11.753Z,102947.28
2023-04-18T13:05:41.331Z,102946.25
2023-04-18T13:08:17.009Z,102953.06
2023-04-18T13:10:47.479Z,102944.31
2023-04-18T13:13:15.970Z,102948.84
2023-04-18T13:15:45.493Z,102943.78
2023-04-18T13:18:13.597Z,102941.88
2023-04-18T13:20:41.766Z,102942.91
2023-04-18T13:23:09.864Z,102945.25
2023-04-18T13:25:37.933Z,102942.09
2023-04-18T13:28:06.406Z,102934.66
2023-04-18T13:30:35.764Z,102938.75
2023-04-18T13:33:05.516Z,102935.88
2023-04-18T13:35:33.647Z,102933.94
2023-04-18T13:38:01.734Z,102946.41
2023-04-18T13:40:29.854Z,102938.47
2023-04-18T13:42:57.979Z,102940.88
2023-04-18T13:45:26.104Z,102934.00
2023-04-18T13:47:54.348Z,102942.72
2023-04-18T13:50:24.486Z,102945.63
2023-04-18T13:52:54.474Z,102929.72
2023-04-18T13:55:22.712Z,102938.41
2023-04-18T13:57:51.066Z,102941.44
2023-04-18T14:00:20.364Z,102904.72
2023-04-18T14:02:48.668Z,102942.78
2023-04-18T14:05:16.982Z,102934.56
2023-04-18T14:07:46.769Z,102941.16
2023-04-18T14:10:15.015Z,102922.06
2023-04-18T14:12:43.112Z,102947.41
2023-04-18T14:15:12.119Z,102937.78
2023-04-18T14:17:40.877Z,102938.94
2023-04-18T14:20:10.869Z,102935.25
2023-04-18T14:22:39.006Z,102944.25
2023-04-18T14:25:09.784Z,102923.81
2023-04-18T14:27:38.052Z,102939.84
2023-04-18T14:30:08.680Z,102936.03
2023-04-18T14:32:36.970Z,102938.31
2023-04-18T14:35:07.113Z,102940.00
2023-04-18T14:37:35.404Z,102932.34
2023-04-18T14:40:05.464Z,102940.50
2023-04-18T14:42:34.942Z,102923.59
2023-04-18T14:45:05.128Z,102934.69
2023-04-18T14:47:34.675Z,102936.78
2023-04-18T14:50:02.923Z,102933.06
2023-04-18T14:52:31.033Z,102930.53
2023-04-18T14:54:59.116Z,102929.06
2023-04-18T14:57:29.403Z,102929.06
2023-04-18T14:59:58.872Z,102930.06
2023-04-18T15:02:27.334Z,102935.66
2023-04-18T15:04:55.814Z,102939.97
2023-04-18T15:07:23.940Z,102929.13
2023-04-18T15:09:52.132Z,102929.72
2023-04-18T15:12:20.193Z,102929.72
2023-04-18T15:14:48.292Z,102928.78
2023-04-18T15:17:17.780Z,102924.44
2023-04-18T15:19:45.859Z,102920.84
2023-04-18T15:22:14.240Z,102927.28
2023-04-18T15:24:42.400Z,102916.59
2023-04-18T15:27:10.851Z,102924.72
2023-04-18T15:29:38.943Z,102927.22
2023-04-18T15:32:07.303Z,102928.22
2023-04-18T15:34:36.966Z,102925.97
2023-04-18T15:37:05.050Z,102930.03
2023-04-18T15:39:33.152Z,102929.44
2023-04-18T15:42:02.241Z,102922.47
2023-04-18T15:44:30.577Z,102934.06
2023-04-18T15:47:01.083Z,102927.06
2023-04-18T15:49:29.136Z,102933.31
2023-04-18T15:51:58.612Z,102928.78
2023-04-18T15:54:26.730Z,102943.25
2023-04-18T15:56:54.837Z,102933.31
2023-04-18T15:59:22.926Z,102937.19
2023-04-18T16:01:51.555Z,102930.16
2023-04-18T16:04:19.755Z,102948.16
2023-04-18T16:06:47.841Z,102947.47
2023-04-18T16:09:17.367Z,102956.50
2023-04-18T16:11:45.491Z,102943.63
2023-04-18T16:14:13.865Z,102946.28
2023-04-18T16:16:42.197Z,102943.75
2023-04-18T16:19:10.275Z,102936.59
2023-04-18T16:21:38.403Z,102936.16
2023-04-18T16:24:07.147Z,102935.81
2023-04-18T16:26:36.609Z,102930.78
2023-04-18T16:29:04.720Z,102932.41
2023-04-18T16:31:32.824Z,102936.13
2023-04-18T16:34:01.103Z,102941.50
2023-04-18T16:36:29.208Z,102939.28
2023-04-18T16:38:57.283Z,102926.28
2023-04-18T16:41:25.598Z,102935.47
2023-04-18T16:43:55.277Z,102935.47
2023-04-18T16:46:23.531Z,102933.72
2023-04-18T16:48:52.508Z,102935.34
2023-04-18T16:51:20.993Z,102942.19
2023-04-18T16:53:49.225Z,102939.16
2023-04-18T16:56:17.338Z,102945.13
2023-04-18T16:58:45.423Z,102941.19
2023-04-18T17:01:14.932Z,102943.50
2023-04-18T17:03:43.106Z,102943.38
2023-04-18T17:06:11.279Z,102945.38
2023-04-18T17:08:39.330Z,102946.69
2023-04-18T17:11:07.969Z,102946.25
2023-04-18T17:13:36.390Z,102953.72
2023-04-18T17:16:04.778Z,102951.00
2023-04-18T17:18:34.567Z,102951.13
2023-04-18T17:21:03.283Z,102946.72
2023-04-18T17:23:32.959Z,102953.66
2023-04-18T17:26:01.315Z,102952.47
2023-04-18T17:28:29.379Z,102952.91
2023-04-18T17:30:58.565Z,102953.44
2023-04-18T17:33:26.671Z,102955.84
2023-04-18T17:35:56.229Z,102959.00
2023-04-18T17:38:24.387Z,102954.88
2023-04-18T17:40:59.992Z,102957.97
2023-04-18T17:43:28.377Z,102965.63
2023-04-18T17:45:57.122Z,102960.63
2023-04-18T17:48:25.891Z,102961.94
2023-04-18T17:50:53.992Z,102966.81
2023-04-18T17:53:23.458Z,102967.09
2023-04-18T17:55:52.250Z,102970.97
2023-04-18T17:58:21.013Z,102977.53
2023-04-18T18:00:49.196Z,102980.44
2023-04-18T18:03:17.962Z,102972.59
2023-04-18T18:05:47.028Z,102976.47
2023-04-18T18:08:15.137Z,102982.09
2023-04-18T18:10:46.907Z,102984.00
2023-04-18T18:13:15.252Z,102982.38
2023-04-18T18:15:43.369Z,102985.19
2023-04-18T18:18:11.552Z,102986.34
2023-04-18T18:20:43.335Z,102994.59
2023-04-18T18:23:11.441Z,102990.28
2023-04-18T18:25:40.184Z,102994.91
2023-04-18T18:28:09.686Z,102996.88
2023-04-18T18:30:38.224Z,102990.78
2023-04-18T18:33:06.430Z,102997.25
2023-04-18T18:35:34.933Z,103003.69
2023-04-18T18:38:03.061Z,103003.91
2023-04-18T18:40:31.223Z,103004.84
2023-04-18T18:43:02.343Z,103008.50
2023-04-18T18:45:31.889Z,103007.69
2023-04-18T18:48:00.005Z,103005.13
2023-04-18T18:50:28.141Z,103009.81
2023-04-18T18:52:56.272Z,103010.81
2023-04-18T18:55:24.485Z,103012.75
2023-04-18T18:57:52.725Z,103011.03
2023-04-18T19:00:21.041Z,103011.25
2023-04-18T19:02:50.734Z,103007.81
2023-04-18T19:05:18.921Z,103020.53
2023-04-18T19:07:47.125Z,103022.53
2023-04-18T19:10:15.382Z,103014.63
2023-04-18T19:12:43.560Z,103029.94
2023-04-18T19:15:12.880Z,103027.34
2023-04-18T19:17:41.595Z,103024.75
2023-04-18T19:20:12.015Z,103029.31
2023-04-18T19:22:40.115Z,103028.56
2023-04-18T19:25:09.719Z,103033.16
2023-04-18T19:27:37.849Z,103030.50
2023-04-18T19:30:06.969Z,103023.41
2023-04-18T19:32:35.105Z,103031.53
2023-04-18T19:35:04.594Z,103026.19
2023-04-18T19:37:35.965Z,103025.34
2023-04-18T19:40:04.153Z,103027.22
2023-04-18T19:42:32.232Z,103028.16
2023-04-18T19:45:00.433Z,103024.69
2023-04-18T19:47:32.163Z,103033.72
2023-04-18T19:50:00.789Z,103038.25
2023-04-18T19:52:28.869Z,103037.47
2023-04-18T19:54:58.348Z,103048.28
2023-04-18T19:57:27.716Z,103047.47
2023-04-18T19:59:55.875Z,103047.50
2023-04-18T20:02:24.135Z,103044.91
2023-04-18T20:04:52.689Z,103052.09
2023-04-18T20:07:20.838Z,103049.47
2023-04-18T20:09:48.943Z,103055.75
2023-04-18T20:12:18.401Z,103061.16
2023-04-18T20:14:46.551Z,103063.84
2023-04-18T20:17:14.722Z,103061.19
2023-04-18T20:19:42.814Z,103061.19
2023-04-18T20:22:10.885Z,103062.09
2023-04-18T20:24:40.152Z,103063.88
2023-04-18T20:27:08.265Z,103062.97
2023-04-18T20:29:37.776Z,103060.22
2023-04-18T20:32:06.461Z,103063.78
2023-04-18T20:34:34.557Z,103068.22
2023-04-18T20:37:02.604Z,103072.66
2023-04-18T20:39:31.503Z,103077.13
2023-04-18T20:41:59.860Z,103072.63
2023-04-18T20:44:28.147Z,103073.56
2023-04-18T20:46:58.023Z,103069.06
2023-04-18T20:49:26.185Z,103067.28
2023-04-18T20:51:54.277Z,103068.22
2023-04-18T20:54:22.397Z,103070.97
2023-04-18T20:56:50.458Z,103063.84
2023-04-18T20:59:18.550Z,103071.06
2023-04-18T21:01:46.925Z,103069.25
2023-04-18T21:04:16.763Z,103071.03
2023-04-18T21:06:45.174Z,103068.34
2023-04-18T21:09:13.431Z,103065.66
2023-04-18T21:11:41.725Z,103076.41
2023-04-18T21:14:09.930Z,103083.56
2023-04-18T21:16:39.539Z,103081.75
2023-04-18T21:19:08.521Z,103088.94
2023-04-18T21:21:37.981Z,103086.28
2023-04-18T21:24:06.711Z,103084.47
2023-04-18T21:26:34.808Z,103087.19
2023-04-18T21:29:04.697Z,103088.97
2023-04-18T21:31:34.255Z,103091.69
2023-04-18T21:34:03.428Z,103085.44
2023-04-18T21:36:32.123Z,103083.63
2023-04-18T21:39:01.953Z,103081.84
2023-04-18T21:41:30.050Z,103085.44
2023-04-18T21:43:58.147Z,103085.47
2023-04-18T21:46:26.503Z,103084.59
2023-04-18T21:48:54.775Z,103084.59
2023-04-18T21:51:22.916Z,103088.22
2023-04-18T21:53:50.998Z,103088.25
2023-04-18T21:56:20.466Z,103090.91
2023-04-18T21:58:48.673Z,103090.06
2023-04-18T22:01:16.760Z,103087.41
2023-04-18T22:03:46.264Z,103085.66
2023-04-18T22:06:14.555Z,103081.19
2023-04-18T22:08:43.640Z,103088.34
2023-04-18T22:11:13.579Z,103083.03
2023-04-18T22:13:44.633Z,103082.16
2023-04-18T22:16:12.898Z,103081.28
2023-04-18T22:18:41.038Z,103076.88
2023-04-18T22:21:09.543Z,103076.03
2023-04-18T22:23:37.606Z,103078.72
2023-04-18T22:26:05.830Z,103079.66
2023-04-18T22:28:33.994Z,103079.72
2023-04-18T22:31:03.450Z,103080.69
2023-04-18T22:33:31.585Z,103077.16
2023-04-18T22:35:59.699Z,103076.28
2023-04-18T22:38:27.786Z,103082.56
2023-04-18T22:40:55.822Z,103071.00
2023-04-18T22:43:24.992Z,103075.50
2023-04-18T22:45:53.187Z,103080.00
2023-04-18T22:48:23.760Z,103074.69
2023-04-18T22:50:51.951Z,103076.50
2023-04-18T22:53:20.034Z,103071.16
2023-04-18T22:55:48.101Z,103070.31
2023-04-18T22:58:16.241Z,103072.16
2023-04-18T23:00:44.375Z,103073.97
2023-04-18T23:03:12.601Z,103079.41
2023-04-18T23:05:42.187Z,103075.00
2023-04-18T23:08:11.832Z,103084.91
2023-04-18T23:10:40.075Z,103077.81
2023-04-18T23:13:08.220Z,103072.53
2023-04-18T23:15:36.333Z,103074.34
2023-04-18T23:18:04.478Z,103074.44
2023-04-18T23:20:32.653Z,103064.66
2023-04-18T23:23:02.064Z,103078.13
2023-04-18T23:25:32.390Z,103071.03
2023-04-18T23:28:00.693Z,103070.16
2023-04-18T23:30:28.858Z,103064.88
2023-04-18T23:32:56.934Z,103067.56
2023-04-18T23:35:25.190Z,103065.78
2023-04-18T23:37:53.293Z,103064.06
2023-04-18T23:40:23.413Z,103064.06
2023-04-18T23:42:51.529Z,103069.47
2023-04-18T23:45:19.652Z,103059.69
2023-04-18T23:47:47.854Z,103063.22
2023-04-18T23:50:15.983Z,103058.75
2023-04-18T23:52:44.240Z,103064.97
2023-04-18T23:55:12.573Z,103056.94
2023-04-18T23:57:42.040Z,103064.06
